Time,TemperatureF,DewpointF,PressureIn,WindDirection,WindDirectionDegrees,WindSpeedMPH,WindSpeedGustMPH,Humidity,HourlyPrecipIn,Conditions,Clouds,dailyrainin,SoftwareType,DateUTC
2013-03-07 00:02:00,36.3,16.0,30.35,West,270,7.0,14.0,43,0.00,,,0.00,meteohub,2013-03-07 07:02:00,
2013-03-07 00:07:00,36.1,16.3,30.35,SW,225,5.0,11.0,44,0.00,,,0.00,meteohub,2013-03-07 07:07:00,
2013-03-07 00:12:00,36.7,16.9,30.35,NW,315,3.0,10.0,44,0.00,,,0.00,meteohub,2013-03-07 07:12:00,
2013-03-07 00:17:00,37.4,19.0,30.35,SW,225,4.0,8.0,47,0.00,,,0.00,meteohub,2013-03-07 07:17:00,
2013-03-07 00:22:00,37.0,16.7,30.35,SW,225,5.0,8.0,43,0.00,,,0.00,meteohub,2013-03-07 07:22:00,
2013-03-07 00:27:00,36.9,16.5,30.35,West,270,5.0,5.0,43,0.00,,,0.00,meteohub,2013-03-07 07:27:00,
2013-03-07 00:32:00,36.3,16.0,30.35,NW,315,2.0,5.0,43,0.00,,,0.00,meteohub,2013-03-07 07:32:00,
2013-03-07 00:37:00,35.8,16.0,30.36,South,180,3.0,6.0,44,0.00,,,0.00,meteohub,2013-03-07 07:37:00,
2013-03-07 00:47:00,40.6,17.1,30.36,South,180,3.0,9.0,38,0.00,,,0.00,meteohub,2013-03-07 07:47:00,
2013-03-07 00:52:00,41.7,14.0,30.35,SE,135,8.0,9.0,32,0.00,,,0.00,meteohub,2013-03-07 07:52:00,
2013-03-07 00:57:00,44.4,10.8,30.35,SW,225,12.0,12.0,25,0.00,,,0.00,meteohub,2013-03-07 07:57:00,
2013-03-07 01:02:00,46.0,11.3,30.36,North,0,8.0,14.0,24,0.00,,,0.00,meteohub,2013-03-07 08:02:00,
2013-03-07 01:10:00,46.0,11.3,30.35,North,0,8.0,14.0,24,0.00,,,0.00,meteohub,2013-03-07 08:10:00,
2013-03-07 01:17:00,44.6,10.0,30.36,NW,315,11.0,11.0,24,0.00,,,0.00,meteohub,2013-03-07 08:17:00,
2013-03-07 01:22:00,44.8,9.1,30.36,West,270,4.0,11.0,23,0.00,,,0.00,meteohub,2013-03-07 08:22:00,
2013-03-07 01:27:00,45.9,9.1,30.35,West,270,15.0,15.0,22,0.00,,,0.00,meteohub,2013-03-07 08:27:00,
2013-03-07 01:32:00,45.9,11.1,30.36,SW,225,8.0,15.0,24,0.00,,,0.00,meteohub,2013-03-07 08:32:00,
2013-03-07 01:40:00,43.3,16.2,30.36,North,0,3.0,19.0,33,0.00,,,0.00,meteohub,2013-03-07 08:40:00,
2013-03-07 01:47:00,42.3,15.3,30.36,West,270,4.0,19.0,33,0.00,,,0.00,meteohub,2013-03-07 08:47:00,
2013-03-07 01:52:00,42.8,13.5,30.36,SW,225,4.0,15.0,30,0.00,,,0.00,meteohub,2013-03-07 08:52:00,
2013-03-07 02:02:00,42.8,12.0,30.35,SW,225,10.0,10.0,28,0.00,,,0.00,meteohub,2013-03-07 09:02:00,
2013-03-07 02:07:00,44.8,10.2,30.35,SW,225,3.0,14.0,24,0.00,,,0.00,meteohub,2013-03-07 09:07:00,
2013-03-07 02:12:00,44.8,11.1,30.35,SW,225,4.0,14.0,25,0.00,,,0.00,meteohub,2013-03-07 09:12:00,
2013-03-07 02:17:00,44.4,10.8,30.36,SW,225,5.0,14.0,25,0.00,,,0.00,meteohub,2013-03-07 09:17:00,
2013-03-07 02:22:00,44.1,10.4,30.35,South,180,6.0,8.0,25,0.00,,,0.00,meteohub,2013-03-07 09:22:00,
2013-03-07 02:27:00,44.6,10.0,30.35,SW,225,4.0,6.0,24,0.00,,,0.00,meteohub,2013-03-07 09:27:00,
2013-03-07 02:32:00,45.0,10.4,30.35,SW,225,5.0,8.0,24,0.00,,,0.00,meteohub,2013-03-07 09:32:00,
2013-03-07 02:37:00,43.5,10.9,30.35,East,90,3.0,8.0,26,0.00,,,0.00,meteohub,2013-03-07 09:37:00,
2013-03-07 02:42:00,44.8,10.2,30.35,NW,315,6.0,8.0,24,0.00,,,0.00,meteohub,2013-03-07 09:42:00,
2013-03-07 02:47:00,42.4,12.4,30.35,NE,45,1.0,9.0,29,0.00,,,0.00,meteohub,2013-03-07 09:47:00,
2013-03-07 02:57:00,41.2,14.2,30.35,SW,225,4.0,8.0,33,0.00,,,0.00,meteohub,2013-03-07 09:57:00,
2013-03-07 03:02:00,43.3,12.4,30.35,SE,135,7.0,14.0,28,0.00,,,0.00,meteohub,2013-03-07 10:02:00,
2013-03-07 03:07:00,43.3,12.4,30.35,SE,135,7.0,14.0,28,0.00,,,0.00,meteohub,2013-03-07 10:07:00,
2013-03-07 03:12:00,45.3,11.5,30.35,SE,135,6.0,14.0,25,0.00,,,0.00,meteohub,2013-03-07 10:12:00,
2013-03-07 03:17:00,44.4,11.7,30.35,West,270,4.0,9.0,26,0.00,,,0.00,meteohub,2013-03-07 10:17:00,
2013-03-07 03:22:00,43.3,11.7,30.35,SSE,158,2.0,9.0,27,0.00,,,0.00,meteohub,2013-03-07 10:22:00,
2013-03-07 03:32:00,43.2,13.8,30.36,SW,225,5.0,8.0,30,0.00,,,0.00,meteohub,2013-03-07 10:32:00,
2013-03-07 03:42:00,43.9,14.4,30.36,SE,135,8.0,11.0,30,0.00,,,0.00,meteohub,2013-03-07 10:42:00,
2013-03-07 03:47:00,43.5,15.6,30.36,South,180,8.0,11.0,32,0.00,,,0.00,meteohub,2013-03-07 10:47:00,
2013-03-07 03:57:00,43.9,16.7,30.36,SE,135,7.0,11.0,33,0.00,,,0.00,meteohub,2013-03-07 10:57:00,
2013-03-07 04:02:00,43.7,15.8,30.36,East,90,5.0,11.0,32,0.00,,,0.00,meteohub,2013-03-07 11:02:00,
2013-03-07 04:07:00,43.0,17.2,30.36,SE,135,4.0,10.0,35,0.00,,,0.00,meteohub,2013-03-07 11:07:00,
2013-03-07 04:12:00,42.3,17.2,30.36,NW,315,11.0,11.0,36,0.00,,,0.00,meteohub,2013-03-07 11:12:00,
2013-03-07 04:17:00,40.5,18.0,30.36,South,180,4.0,11.0,40,0.00,,,0.00,meteohub,2013-03-07 11:17:00,
2013-03-07 04:22:00,39.4,19.2,30.36,SE,135,4.0,11.0,44,0.00,,,0.00,meteohub,2013-03-07 11:22:00,
2013-03-07 04:27:00,40.3,20.7,30.36,South,180,9.0,11.0,45,0.00,,,0.00,meteohub,2013-03-07 11:27:00,
2013-03-07 04:32:00,41.4,20.5,30.37,SE,135,4.0,11.0,43,0.00,,,0.00,meteohub,2013-03-07 11:32:00,
2013-03-07 04:37:00,41.5,19.0,30.37,SW,225,2.0,11.0,40,0.00,,,0.00,meteohub,2013-03-07 11:37:00,
2013-03-07 04:42:00,42.4,18.0,30.38,SE,135,13.0,13.0,37,0.00,,,0.00,meteohub,2013-03-07 11:42:00,
2013-03-07 04:47:00,43.7,15.8,30.38,SE,135,9.0,13.0,32,0.00,,,0.00,meteohub,2013-03-07 11:47:00,
2013-03-07 04:52:00,43.5,15.6,30.38,East,90,2.0,14.0,32,0.00,,,0.00,meteohub,2013-03-07 11:52:00,
2013-03-07 04:57:00,43.3,15.4,30.38,SE,135,4.0,14.0,32,0.00,,,0.00,meteohub,2013-03-07 11:57:00,
2013-03-07 05:02:00,43.5,15.6,30.38,SW,225,11.0,14.0,32,0.00,,,0.00,meteohub,2013-03-07 12:02:00,
2013-03-07 05:07:00,43.5,15.6,30.39,SW,225,11.0,11.0,32,0.00,,,0.00,meteohub,2013-03-07 12:07:00,
2013-03-07 05:12:00,42.4,17.4,30.38,South,180,6.0,11.0,36,0.00,,,0.00,meteohub,2013-03-07 12:12:00,
2013-03-07 05:17:00,41.4,17.6,30.39,SW,225,6.0,11.0,38,0.00,,,0.00,meteohub,2013-03-07 12:17:00,
2013-03-07 05:22:00,41.9,18.1,30.39,East,90,5.0,11.0,38,0.00,,,0.00,meteohub,2013-03-07 12:22:00,
2013-03-07 05:27:00,40.8,18.3,30.39,North,0,2.0,11.0,40,0.00,,,0.00,meteohub,2013-03-07 12:27:00,
2013-03-07 05:32:00,40.3,18.5,30.39,SE,135,4.0,11.0,41,0.00,,,0.00,meteohub,2013-03-07 12:32:00,
2013-03-07 05:37:00,39.4,19.2,30.38,NW,315,5.0,7.0,44,0.00,,,0.00,meteohub,2013-03-07 12:37:00,
2013-03-07 05:42:00,39.9,19.8,30.39,South,180,4.0,7.0,44,0.00,,,0.00,meteohub,2013-03-07 12:42:00,
2013-03-07 05:52:00,38.7,19.2,30.39,SE,135,2.0,7.0,45,0.00,,,0.00,meteohub,2013-03-07 12:52:00,
2013-03-07 05:57:00,39.0,19.4,30.39,West,270,7.0,7.0,45,0.00,,,0.00,meteohub,2013-03-07 12:57:00,
2013-03-07 06:02:00,38.1,18.7,30.40,West,270,8.0,8.0,45,0.00,,,0.00,meteohub,2013-03-07 13:02:00,
2013-03-07 06:07:00,39.4,19.8,30.39,SE,135,7.0,8.0,45,0.00,,,0.00,meteohub,2013-03-07 13:07:00,
2013-03-07 06:12:00,41.0,19.0,30.40,NW,315,2.0,8.0,41,0.00,,,0.00,meteohub,2013-03-07 13:12:00,
2013-03-07 06:17:00,39.4,18.1,30.40,East,90,2.0,8.0,42,0.00,,,0.00,meteohub,2013-03-07 13:17:00,
2013-03-07 06:22:00,39.2,19.0,30.40,SE,135,4.0,8.0,44,0.00,,,0.00,meteohub,2013-03-07 13:22:00,
2013-03-07 06:27:00,39.7,19.6,30.40,SE,135,5.0,8.0,44,0.00,,,0.00,meteohub,2013-03-07 13:27:00,
2013-03-07 06:32:00,40.1,19.9,30.40,NW,315,2.0,7.0,44,0.00,,,0.00,meteohub,2013-03-07 13:32:00,
2013-03-07 06:37:00,38.7,19.2,30.41,NW,315,4.0,7.0,45,0.00,,,0.00,meteohub,2013-03-07 13:37:00,
2013-03-07 06:42:00,37.4,18.0,30.41,South,180,1.0,7.0,45,0.00,,,0.00,meteohub,2013-03-07 13:42:00,
2013-03-07 06:47:00,37.6,18.7,30.41,SW,225,2.0,4.0,46,0.00,,,0.00,meteohub,2013-03-07 13:47:00,
2013-03-07 06:52:00,37.2,16.7,30.41,SW,225,2.0,4.0,43,0.00,,,0.00,meteohub,2013-03-07 13:52:00,
2013-03-07 07:02:00,38.8,19.8,30.41,SE,135,2.0,4.0,46,0.00,,,0.00,meteohub,2013-03-07 14:02:00,
2013-03-07 07:07:00,38.8,19.8,30.41,SE,135,2.0,3.0,46,0.00,,,0.00,meteohub,2013-03-07 14:07:00,
2013-03-07 07:12:00,42.4,18.7,30.41,NW,315,5.0,7.0,38,0.00,,,0.00,meteohub,2013-03-07 14:12:00,
2013-03-07 07:17:00,43.2,19.2,30.42,South,180,2.0,8.0,38,0.00,,,0.00,meteohub,2013-03-07 14:17:00,
2013-03-07 07:22:00,45.7,18.9,30.42,SW,225,0.0,8.0,34,0.00,,,0.00,meteohub,2013-03-07 14:22:00,
2013-03-07 07:27:00,46.6,20.3,30.42,SE,135,1.0,8.0,35,0.00,,,0.00,meteohub,2013-03-07 14:27:00,
2013-03-07 07:32:00,47.1,20.8,30.42,East,90,2.0,3.0,35,0.00,,,0.00,meteohub,2013-03-07 14:32:00,
2013-03-07 07:37:00,47.5,21.2,30.42,SE,135,4.0,4.0,35,0.00,,,0.00,meteohub,2013-03-07 14:37:00,
2013-03-07 07:47:00,47.7,21.4,30.42,SE,135,4.0,6.0,35,0.00,,,0.00,meteohub,2013-03-07 14:47:00,
2013-03-07 07:52:00,49.5,20.1,30.42,East,90,4.0,6.0,31,0.00,,,0.00,meteohub,2013-03-07 14:52:00,
2013-03-07 07:57:00,50.0,17.2,30.43,East,90,3.0,6.0,27,0.00,,,0.00,meteohub,2013-03-07 14:57:00,
2013-03-07 08:07:00,49.6,17.1,30.42,SE,135,7.0,7.0,27,0.00,,,0.00,meteohub,2013-03-07 15:07:00,
2013-03-07 08:12:00,50.5,16.9,30.41,East,90,3.0,7.0,26,0.00,,,0.00,meteohub,2013-03-07 15:12:00,
2013-03-07 08:17:00,51.1,15.4,30.41,SE,135,3.0,9.0,24,0.00,,,0.00,meteohub,2013-03-07 15:17:00,
2013-03-07 08:22:00,51.8,17.1,30.40,East,90,3.0,9.0,25,0.00,,,0.00,meteohub,2013-03-07 15:22:00,
2013-03-07 08:30:00,51.6,16.9,30.39,NE,45,5.0,6.0,25,0.00,,,0.00,meteohub,2013-03-07 15:30:00,
2013-03-07 08:37:00,51.6,17.8,30.37,SW,225,4.0,8.0,26,0.00,,,0.00,meteohub,2013-03-07 15:37:00,
2013-03-07 08:42:00,54.1,16.2,30.35,NW,315,4.0,5.0,22,0.00,,,0.00,meteohub,2013-03-07 15:42:00,
2013-03-07 08:52:00,55.2,17.1,30.33,ESE,113,5.0,8.0,22,0.00,,,0.00,meteohub,2013-03-07 15:52:00,
2013-03-07 09:02:00,52.9,15.1,30.32,East,90,4.0,9.0,22,0.00,,,0.00,meteohub,2013-03-07 16:02:00,
2013-03-07 09:12:00,53.6,15.6,30.32,SE,135,5.0,9.0,22,0.00,,,0.00,meteohub,2013-03-07 16:12:00,
2013-03-07 09:17:00,53.2,16.3,30.33,SE,135,8.0,9.0,23,0.00,,,0.00,meteohub,2013-03-07 16:17:00,
2013-03-07 09:22:00,52.5,15.8,30.35,East,90,9.0,9.0,23,0.00,,,0.00,meteohub,2013-03-07 16:22:00,
2013-03-07 09:27:00,52.2,15.4,30.35,East,90,8.0,10.0,23,0.00,,,0.00,meteohub,2013-03-07 16:27:00,
2013-03-07 09:32:00,52.5,15.8,30.36,SE,135,8.0,10.0,23,0.00,,,0.00,meteohub,2013-03-07 16:32:00,
2013-03-07 09:37:00,52.5,15.8,30.37,SE,135,11.0,11.0,23,0.00,,,0.00,meteohub,2013-03-07 16:37:00,
2013-03-07 09:42:00,52.0,15.3,30.38,East,90,7.0,11.0,23,0.00,,,0.00,meteohub,2013-03-07 16:42:00,
2013-03-07 09:47:00,52.5,16.7,30.38,East,90,8.0,11.0,24,0.00,,,0.00,meteohub,2013-03-07 16:47:00,
2013-03-07 09:55:00,52.5,15.8,30.39,SE,135,8.0,11.0,23,0.00,,,0.00,meteohub,2013-03-07 16:55:00,
2013-03-07 10:02:00,52.7,16.0,30.40,SE,135,8.0,11.0,23,0.00,,,0.00,meteohub,2013-03-07 17:02:00,
2013-03-07 10:07:00,53.4,16.5,30.41,SE,135,8.0,11.0,23,0.00,,,0.00,meteohub,2013-03-07 17:07:00,
2013-03-07 10:12:00,52.9,16.2,30.41,East,90,11.0,15.0,23,0.00,,,0.00,meteohub,2013-03-07 17:12:00,
2013-03-07 10:17:00,52.7,16.0,30.41,East,90,7.0,15.0,23,0.00,,,0.00,meteohub,2013-03-07 17:17:00,
2013-03-07 10:22:00,53.8,15.8,30.41,East,90,8.0,15.0,22,0.00,,,0.00,meteohub,2013-03-07 17:22:00,
2013-03-07 10:32:00,53.8,15.8,30.41,East,90,12.0,12.0,22,0.00,,,0.00,meteohub,2013-03-07 17:32:00,
2013-03-07 10:42:00,54.1,15.1,30.41,SE,135,9.0,13.0,21,0.00,,,0.00,meteohub,2013-03-07 17:42:00,
2013-03-07 10:47:00,54.1,14.0,30.41,SE,135,11.0,13.0,20,0.00,,,0.00,meteohub,2013-03-07 17:47:00,
2013-03-07 10:52:00,54.1,14.0,30.41,SW,225,13.0,15.0,20,0.00,,,0.00,meteohub,2013-03-07 17:52:00,
2013-03-07 11:00:00,54.3,14.0,30.42,SE,135,14.0,15.0,20,0.00,,,0.00,meteohub,2013-03-07 18:00:00,
2013-03-07 11:07:00,54.5,14.2,30.41,ESE,113,17.0,17.0,20,0.00,,,0.00,meteohub,2013-03-07 18:07:00,
2013-03-07 11:12:00,54.3,14.0,30.42,SE,135,12.0,17.0,20,0.00,,,0.00,meteohub,2013-03-07 18:12:00,
2013-03-07 11:17:00,54.0,13.8,30.42,SE,135,14.0,17.0,20,0.00,,,0.00,meteohub,2013-03-07 18:17:00,
2013-03-07 11:22:00,54.3,14.0,30.42,SE,135,11.0,17.0,20,0.00,,,0.00,meteohub,2013-03-07 18:22:00,
2013-03-07 11:27:00,55.0,14.7,30.41,SE,135,15.0,17.0,20,0.00,,,0.00,meteohub,2013-03-07 18:27:00,
2013-03-07 11:32:00,54.9,13.3,30.41,SE,135,11.0,19.0,19,0.00,,,0.00,meteohub,2013-03-07 18:32:00,
2013-03-07 11:37:00,54.7,13.3,30.41,SE,135,15.0,19.0,19,0.00,,,0.00,meteohub,2013-03-07 18:37:00,
2013-03-07 11:42:00,54.5,14.2,30.41,East,90,9.0,17.0,20,0.00,,,0.00,meteohub,2013-03-07 18:42:00,
2013-03-07 11:47:00,55.0,14.7,30.41,ESE,113,9.0,17.0,20,0.00,,,0.00,meteohub,2013-03-07 18:47:00,
2013-03-07 11:55:00,55.2,14.9,30.41,East,90,14.0,17.0,20,0.00,,,0.00,meteohub,2013-03-07 18:55:00,
2013-03-07 12:02:00,55.8,17.4,30.41,ESE,113,11.0,17.0,22,0.00,,,0.00,meteohub,2013-03-07 19:02:00,
2013-03-07 12:07:00,56.3,18.0,30.40,East,90,12.0,17.0,22,0.00,,,0.00,meteohub,2013-03-07 19:07:00,
2013-03-07 12:12:00,56.5,18.1,30.41,SE,135,15.0,15.0,22,0.00,,,0.00,meteohub,2013-03-07 19:12:00,
2013-03-07 12:17:00,56.3,18.0,30.40,SE,135,11.0,15.0,22,0.00,,,0.00,meteohub,2013-03-07 19:17:00,
2013-03-07 12:25:00,56.3,16.9,30.40,South,180,9.0,15.0,21,0.00,,,0.00,meteohub,2013-03-07 19:25:00,
2013-03-07 12:32:00,57.2,16.5,30.40,East,90,16.0,16.0,20,0.00,,,0.00,meteohub,2013-03-07 19:32:00,
2013-03-07 12:37:00,57.2,17.6,30.39,NE,45,16.0,16.0,21,0.00,,,0.00,meteohub,2013-03-07 19:37:00,
2013-03-07 12:42:00,57.0,18.5,30.40,SE,135,11.0,17.0,22,0.00,,,0.00,meteohub,2013-03-07 19:42:00,
2013-03-07 12:47:00,57.0,18.5,30.39,SE,135,11.0,17.0,22,0.00,,,0.00,meteohub,2013-03-07 19:47:00,
2013-03-07 12:52:00,56.7,18.3,30.39,SE,135,10.0,17.0,22,0.00,,,0.00,meteohub,2013-03-07 19:52:00,
2013-03-07 12:57:00,57.0,19.6,30.39,South,180,8.0,17.0,23,0.00,,,0.00,meteohub,2013-03-07 19:57:00,
2013-03-07 13:02:00,57.2,19.8,30.39,East,90,14.0,17.0,23,0.00,,,0.00,meteohub,2013-03-07 20:02:00,
2013-03-07 13:07:00,57.2,19.8,30.39,East,90,14.0,17.0,23,0.00,,,0.00,meteohub,2013-03-07 20:07:00,
2013-03-07 13:17:00,56.5,19.0,30.38,East,90,16.0,17.0,23,0.00,,,0.00,meteohub,2013-03-07 20:17:00,
2013-03-07 13:22:00,56.5,19.0,30.38,SE,135,14.0,17.0,23,0.00,,,0.00,meteohub,2013-03-07 20:22:00,
2013-03-07 13:27:00,57.0,19.6,30.38,SE,135,15.0,16.0,23,0.00,,,0.00,meteohub,2013-03-07 20:27:00,
2013-03-07 13:32:00,57.7,20.1,30.38,East,90,9.0,16.0,23,0.00,,,0.00,meteohub,2013-03-07 20:32:00,
2013-03-07 13:37:00,57.6,21.0,30.38,SE,135,17.0,17.0,24,0.00,,,0.00,meteohub,2013-03-07 20:37:00,
2013-03-07 13:45:00,56.7,21.2,30.38,South,180,19.0,19.0,25,0.00,,,0.00,meteohub,2013-03-07 20:45:00,
2013-03-07 13:52:00,55.8,17.4,30.38,SSW,203,12.0,21.0,22,0.00,,,0.00,meteohub,2013-03-07 20:52:00,
2013-03-07 13:57:00,55.9,17.6,30.38,SE,135,15.0,21.0,22,0.00,,,0.00,meteohub,2013-03-07 20:57:00,
2013-03-07 14:02:00,54.5,13.1,30.38,SW,225,11.0,21.0,19,0.00,,,0.00,meteohub,2013-03-07 21:02:00,
2013-03-07 14:07:00,55.4,17.2,30.38,South,180,11.0,16.0,22,0.00,,,0.00,meteohub,2013-03-07 21:07:00,
2013-03-07 14:12:00,55.6,17.2,30.38,SW,225,11.0,15.0,22,0.00,,,0.00,meteohub,2013-03-07 21:12:00,
2013-03-07 14:17:00,55.9,17.6,30.38,ESE,113,12.0,15.0,22,0.00,,,0.00,meteohub,2013-03-07 21:17:00,
2013-03-07 14:27:00,55.9,19.6,30.38,SE,135,13.0,17.0,24,0.00,,,0.00,meteohub,2013-03-07 21:27:00,
2013-03-07 14:32:00,55.6,19.4,30.38,SSE,158,8.0,18.0,24,0.00,,,0.00,meteohub,2013-03-07 21:32:00,
2013-03-07 14:37:00,55.8,19.6,30.38,SE,135,8.0,18.0,24,0.00,,,0.00,meteohub,2013-03-07 21:37:00,
2013-03-07 14:42:00,56.5,21.0,30.38,SE,135,18.0,18.0,25,0.00,,,0.00,meteohub,2013-03-07 21:42:00,
2013-03-07 14:47:00,56.7,21.2,30.38,SE,135,13.0,18.0,25,0.00,,,0.00,meteohub,2013-03-07 21:47:00,
2013-03-07 14:52:00,56.8,22.3,30.38,SE,135,16.0,18.0,26,0.00,,,0.00,meteohub,2013-03-07 21:52:00,
2013-03-07 14:57:00,56.1,22.6,30.38,SE,135,10.0,18.0,27,0.00,,,0.00,meteohub,2013-03-07 21:57:00,
2013-03-07 15:02:00,55.9,23.4,30.39,East,90,12.0,17.0,28,0.00,,,0.00,meteohub,2013-03-07 22:02:00,
2013-03-07 15:12:00,56.1,24.3,30.38,SSE,158,9.0,21.0,29,0.00,,,0.00,meteohub,2013-03-07 22:12:00,
2013-03-07 15:22:00,57.2,24.4,30.38,SE,135,12.0,21.0,28,0.00,,,0.00,meteohub,2013-03-07 22:22:00,
2013-03-07 15:27:00,57.7,24.8,30.38,South,180,7.0,15.0,28,0.00,,,0.00,meteohub,2013-03-07 22:27:00,
2013-03-07 15:32:00,57.6,24.6,30.38,SE,135,5.0,15.0,28,0.00,,,0.00,meteohub,2013-03-07 22:32:00,
2013-03-07 15:37:00,58.3,24.4,30.38,SE,135,8.0,15.0,27,0.00,,,0.00,meteohub,2013-03-07 22:37:00,
2013-03-07 15:42:00,56.8,25.7,30.38,SSE,158,5.0,15.0,30,0.00,,,0.00,meteohub,2013-03-07 22:42:00,
2013-03-07 15:47:00,56.8,25.0,30.39,SE,135,12.0,13.0,29,0.00,,,0.00,meteohub,2013-03-07 22:47:00,
2013-03-07 15:57:00,56.5,25.3,30.39,South,180,5.0,14.0,30,0.00,,,0.00,meteohub,2013-03-07 22:57:00,
2013-03-07 16:02:00,56.3,24.4,30.38,SE,135,8.0,14.0,29,0.00,,,0.00,meteohub,2013-03-07 23:02:00,
2013-03-07 16:10:00,56.3,24.4,30.38,East,90,11.0,13.0,29,0.00,,,0.00,meteohub,2013-03-07 23:10:00,
2013-03-07 16:17:00,55.8,23.9,30.38,ESE,113,8.0,14.0,29,0.00,,,0.00,meteohub,2013-03-07 23:17:00,
2013-03-07 16:22:00,56.3,24.4,30.38,SE,135,11.0,14.0,29,0.00,,,0.00,meteohub,2013-03-07 23:22:00,
2013-03-07 16:27:00,56.5,23.7,30.38,South,180,6.0,14.0,28,0.00,,,0.00,meteohub,2013-03-07 23:27:00,
2013-03-07 16:32:00,56.7,23.0,30.38,SE,135,6.0,13.0,27,0.00,,,0.00,meteohub,2013-03-07 23:32:00,
2013-03-07 16:37:00,55.8,21.4,30.38,SE,135,11.0,11.0,26,0.00,,,0.00,meteohub,2013-03-07 23:37:00,
2013-03-07 16:42:00,55.0,19.8,30.38,SE,135,8.0,11.0,25,0.00,,,0.00,meteohub,2013-03-07 23:42:00,
2013-03-07 16:52:00,53.4,20.3,30.38,SW,225,5.0,11.0,27,0.00,,,0.00,meteohub,2013-03-07 23:52:00,
2013-03-07 16:57:00,52.7,19.6,30.39,SE,135,4.0,10.0,27,0.00,,,0.00,meteohub,2013-03-07 23:57:00,
2013-03-07 17:02:00,52.7,19.6,30.39,SW,225,6.0,8.0,27,0.00,,,0.00,meteohub,2013-03-08 00:02:00,
2013-03-07 17:07:00,52.7,19.6,30.39,SW,225,6.0,8.0,27,0.00,,,0.00,meteohub,2013-03-08 00:07:00,
2013-03-07 17:12:00,51.6,20.3,30.39,SE,135,4.0,8.0,29,0.00,,,0.00,meteohub,2013-03-08 00:12:00,
2013-03-07 17:17:00,51.4,20.3,30.40,SE,135,3.0,6.0,29,0.00,,,0.00,meteohub,2013-03-08 00:17:00,
2013-03-07 17:22:00,50.9,19.8,30.40,SE,135,2.0,6.0,29,0.00,,,0.00,meteohub,2013-03-08 00:22:00,
2013-03-07 17:27:00,50.7,19.6,30.39,SE,135,4.0,4.0,29,0.00,,,0.00,meteohub,2013-03-08 00:27:00,
2013-03-07 17:32:00,50.7,19.6,30.40,SE,135,1.0,4.0,29,0.00,,,0.00,meteohub,2013-03-08 00:32:00,
2013-03-07 17:37:00,50.4,19.2,30.40,SE,135,2.0,6.0,29,0.00,,,0.00,meteohub,2013-03-08 00:37:00,
2013-03-07 17:42:00,50.0,19.8,30.40,SE,135,0.0,6.0,30,0.00,,,0.00,meteohub,2013-03-08 00:42:00,
2013-03-07 17:47:00,49.5,20.8,30.40,South,180,2.0,6.0,32,0.00,,,0.00,meteohub,2013-03-08 00:47:00,
2013-03-07 17:57:00,48.6,20.8,30.40,South,180,1.0,3.0,33,0.00,,,0.00,meteohub,2013-03-08 00:57:00,
2013-03-07 18:02:00,47.8,21.6,30.41,NE,45,2.0,3.0,35,0.00,,,0.00,meteohub,2013-03-08 01:02:00,
2013-03-07 18:07:00,47.3,21.0,30.41,South,180,2.0,3.0,35,0.00,,,0.00,meteohub,2013-03-08 01:07:00,
2013-03-07 18:12:00,47.1,21.6,30.41,SW,225,2.0,2.0,36,0.00,,,0.00,meteohub,2013-03-08 01:12:00,
2013-03-07 18:17:00,46.4,20.8,30.41,West,270,2.0,2.0,36,0.00,,,0.00,meteohub,2013-03-08 01:17:00,
2013-03-07 18:22:00,45.3,20.7,30.41,SSW,203,2.0,2.0,37,0.00,,,0.00,meteohub,2013-03-08 01:22:00,
2013-03-07 18:27:00,45.1,21.0,30.41,NNW,338,2.0,2.0,38,0.00,,,0.00,meteohub,2013-03-08 01:27:00,
2013-03-07 18:32:00,45.3,21.7,30.41,South,180,2.0,3.0,39,0.00,,,0.00,meteohub,2013-03-08 01:32:00,
2013-03-07 18:37:00,45.7,21.6,30.41,SW,225,2.0,3.0,38,0.00,,,0.00,meteohub,2013-03-08 01:37:00,
2013-03-07 18:42:00,45.5,21.4,30.42,SW,225,2.0,4.0,38,0.00,,,0.00,meteohub,2013-03-08 01:42:00,
2013-03-07 18:47:00,45.7,22.1,30.42,West,270,2.0,4.0,39,0.00,,,0.00,meteohub,2013-03-08 01:47:00,
2013-03-07 18:52:00,46.2,22.6,30.42,NW,315,1.0,4.0,39,0.00,,,0.00,meteohub,2013-03-08 01:52:00,
2013-03-07 18:57:00,46.6,22.3,30.42,NE,45,2.0,4.0,38,0.00,,,0.00,meteohub,2013-03-08 01:57:00,
2013-03-07 19:02:00,46.8,21.9,30.42,North,0,2.0,3.0,37,0.00,,,0.00,meteohub,2013-03-08 02:02:00,
2013-03-07 19:12:00,44.6,22.3,30.42,West,270,2.0,2.0,41,0.00,,,0.00,meteohub,2013-03-08 02:12:00,
2013-03-07 19:17:00,43.7,22.1,30.42,NE,45,1.0,2.0,42,0.00,,,0.00,meteohub,2013-03-08 02:17:00,
2013-03-07 19:22:00,43.3,22.3,30.42,SW,225,2.0,2.0,43,0.00,,,0.00,meteohub,2013-03-08 02:22:00,
2013-03-07 19:27:00,43.2,22.1,30.42,West,270,2.0,3.0,43,0.00,,,0.00,meteohub,2013-03-08 02:27:00,
2013-03-07 19:32:00,43.0,22.1,30.42,NW,315,2.0,3.0,43,0.00,,,0.00,meteohub,2013-03-08 02:32:00,
2013-03-07 19:37:00,42.8,22.5,30.43,SW,225,2.0,3.0,44,0.00,,,0.00,meteohub,2013-03-08 02:37:00,
2013-03-07 19:42:00,66.4,66.4,30.42,SW,225,3.0,3.0,0,0.00,,,0.00,meteohub,2013-03-08 02:42:00,
2013-03-07 19:47:00,42.8,22.5,30.42,SW,225,4.0,4.0,44,0.00,,,0.00,meteohub,2013-03-08 02:47:00,
2013-03-07 19:52:00,43.7,22.6,30.42,SE,135,2.0,4.0,43,0.00,,,0.00,meteohub,2013-03-08 02:52:00,
2013-03-07 19:57:00,44.2,22.6,30.43,West,270,3.0,4.0,42,0.00,,,0.00,meteohub,2013-03-08 02:57:00,
2013-03-07 20:02:00,44.6,22.3,30.43,West,270,2.0,9.0,41,0.00,,,0.00,meteohub,2013-03-08 03:02:00,
2013-03-07 20:07:00,45.3,21.2,30.43,West,270,4.0,9.0,38,0.00,,,0.00,meteohub,2013-03-08 03:07:00,
2013-03-07 20:12:00,46.2,20.7,30.43,South,180,2.0,6.0,36,0.00,,,0.00,meteohub,2013-03-08 03:12:00,
2013-03-07 20:17:00,46.8,21.2,30.43,South,180,3.0,6.0,36,0.00,,,0.00,meteohub,2013-03-08 03:17:00,
2013-03-07 20:22:00,46.8,21.9,30.43,South,180,3.0,6.0,37,0.00,,,0.00,meteohub,2013-03-08 03:22:00,
2013-03-07 20:27:00,46.0,22.5,30.43,SW,225,2.0,6.0,39,0.00,,,0.00,meteohub,2013-03-08 03:27:00,
2013-03-07 20:32:00,45.1,22.8,30.44,NW,315,1.0,5.0,41,0.00,,,0.00,meteohub,2013-03-08 03:32:00,
2013-03-07 20:37:00,44.4,22.8,30.44,SE,135,2.0,5.0,42,0.00,,,0.00,meteohub,2013-03-08 03:37:00,
2013-03-07 20:42:00,44.4,22.8,30.45,South,180,1.0,2.0,42,0.00,,,0.00,meteohub,2013-03-08 03:42:00,
2013-03-07 20:47:00,44.1,22.5,30.44,SW,225,3.0,3.0,42,0.00,,,0.00,meteohub,2013-03-08 03:47:00,
2013-03-07 20:52:00,43.9,22.3,30.44,SW,225,1.0,3.0,42,0.00,,,0.00,meteohub,2013-03-08 03:52:00,
2013-03-07 20:57:00,43.3,21.7,30.45,South,180,1.0,3.0,42,0.00,,,0.00,meteohub,2013-03-08 03:57:00,
2013-03-07 21:02:00,43.2,21.6,30.45,SW,225,2.0,3.0,42,0.00,,,0.00,meteohub,2013-03-08 04:02:00,
2013-03-07 21:07:00,43.2,21.6,30.45,SW,225,2.0,2.0,42,0.00,,,0.00,meteohub,2013-03-08 04:07:00,
2013-03-07 21:12:00,41.9,21.6,30.45,SW,225,3.0,3.0,44,0.00,,,0.00,meteohub,2013-03-08 04:12:00,
2013-03-07 21:22:00,41.9,22.1,30.45,South,180,1.0,3.0,45,0.00,,,0.00,meteohub,2013-03-08 04:22:00,
2013-03-07 21:27:00,41.9,21.6,30.45,South,180,2.0,3.0,44,0.00,,,0.00,meteohub,2013-03-08 04:27:00,
2013-03-07 21:32:00,42.1,21.7,30.46,SE,135,3.0,4.0,44,0.00,,,0.00,meteohub,2013-03-08 04:32:00,
2013-03-07 21:37:00,42.3,21.9,30.46,SSW,203,2.0,4.0,44,0.00,,,0.00,meteohub,2013-03-08 04:37:00,
2013-03-07 21:42:00,42.1,21.7,30.45,SW,225,2.0,4.0,44,0.00,,,0.00,meteohub,2013-03-08 04:42:00,
2013-03-07 21:47:00,41.2,21.4,30.46,South,180,3.0,4.0,45,0.00,,,0.00,meteohub,2013-03-08 04:47:00,
2013-03-07 21:55:00,41.2,22.5,30.46,SE,135,4.0,4.0,47,0.00,,,0.00,meteohub,2013-03-08 04:55:00,
2013-03-07 22:02:00,40.3,24.1,30.46,SE,135,5.0,5.0,52,0.00,,,0.00,meteohub,2013-03-08 05:02:00,
2013-03-07 22:07:00,39.9,24.3,30.46,SSE,158,4.0,5.0,53,0.00,,,0.00,meteohub,2013-03-08 05:07:00,
2013-03-07 22:12:00,39.7,24.4,30.45,SE,135,4.0,5.0,54,0.00,,,0.00,meteohub,2013-03-08 05:12:00,
2013-03-07 22:17:00,38.3,23.5,30.45,SW,225,1.0,5.0,55,0.00,,,0.00,meteohub,2013-03-08 05:17:00,
2013-03-07 22:22:00,37.0,21.6,30.46,SW,225,3.0,4.0,53,0.00,,,0.00,meteohub,2013-03-08 05:22:00,
2013-03-07 22:27:00,35.2,21.2,30.45,SW,225,2.0,4.0,56,0.00,,,0.00,meteohub,2013-03-08 05:27:00,
2013-03-07 22:32:00,34.5,21.7,30.45,SW,225,2.0,4.0,59,0.00,,,0.00,meteohub,2013-03-08 05:32:00,
2013-03-07 22:37:00,34.2,22.5,30.45,SW,225,3.0,4.0,62,0.00,,,0.00,meteohub,2013-03-08 05:37:00,
2013-03-07 22:42:00,34.3,22.6,30.45,West,270,3.0,4.0,62,0.00,,,0.00,meteohub,2013-03-08 05:42:00,
2013-03-07 22:47:00,34.2,22.8,30.46,SW,225,3.0,4.0,63,0.00,,,0.00,meteohub,2013-03-08 05:47:00,
2013-03-07 22:52:00,34.2,22.8,30.45,SW,225,2.0,4.0,63,0.00,,,0.00,meteohub,2013-03-08 05:52:00,
2013-03-07 22:57:00,33.4,22.6,30.46,South,180,4.0,4.0,64,0.00,,,0.00,meteohub,2013-03-08 05:57:00,
2013-03-07 23:02:00,33.3,22.8,30.45,SW,225,3.0,4.0,65,0.00,,,0.00,meteohub,2013-03-08 06:02:00,
2013-03-07 23:07:00,33.3,22.8,30.45,SW,225,3.0,4.0,65,0.00,,,0.00,meteohub,2013-03-08 06:07:00,
2013-03-07 23:12:00,32.7,22.6,30.45,SW,225,3.0,4.0,66,0.00,,,0.00,meteohub,2013-03-08 06:12:00,
2013-03-07 23:17:00,32.9,23.2,30.46,SW,225,2.0,3.0,67,0.00,,,0.00,meteohub,2013-03-08 06:17:00,
2013-03-07 23:22:00,33.3,23.5,30.45,SW,225,4.0,4.0,67,0.00,,,0.00,meteohub,2013-03-08 06:22:00,
2013-03-07 23:27:00,32.5,22.8,30.45,SW,225,2.0,4.0,67,0.00,,,0.00,meteohub,2013-03-08 06:27:00,
2013-03-07 23:32:00,32.7,23.0,30.45,SW,225,2.0,4.0,67,0.00,,,0.00,meteohub,2013-03-08 06:32:00,
2013-03-07 23:37:00,32.5,23.2,30.45,SW,225,4.0,4.0,68,0.00,,,0.00,meteohub,2013-03-08 06:37:00,
2013-03-07 23:42:00,33.1,23.7,30.45,SW,225,4.0,5.0,68,0.00,,,0.00,meteohub,2013-03-08 06:42:00,
2013-03-07 23:47:00,32.9,23.2,30.45,SW,225,4.0,5.0,67,0.00,,,0.00,meteohub,2013-03-08 06:47:00,
2013-03-07 23:52:00,33.6,23.5,30.44,WSW,248,4.0,5.0,66,0.00,,,0.00,meteohub,2013-03-08 06:52:00,
2013-03-07 23:57:00,34.2,22.8,30.44,WSW,248,3.0,4.0,63,0.00,,,0.00,meteohub,2013-03-08 06:57:00,